createdAt,value
2018-09-23T00:02:05.604Z,28.30
2018-09-23T00:04:44.530Z,26.03
2018-09-23T00:07:22.952Z,28.03
2018-09-23T00:10:01.528Z,37.87
2018-09-23T00:12:38.971Z,27.27
2018-09-23T00:15:19.629Z,70.60
2018-09-23T00:17:57.978Z,34.07
2018-09-23T00:20:38.453Z,288.63
2018-09-23T00:23:18.995Z,119.10
2018-09-23T00:25:57.555Z,107.73
2018-09-23T00:28:36.774Z,141.20
2018-09-23T00:31:14.845Z,80.83
2018-09-23T00:33:53.426Z,91.00
2018-09-23T00:36:32.573Z,90.63
2018-09-23T00:39:11.247Z,74.33
2018-09-23T00:41:47.828Z,39.80
2018-09-23T00:44:26.694Z,97.87
2018-09-23T00:47:05.415Z,43.23
2018-09-23T00:49:45.085Z,53.97
2018-09-23T00:52:24.033Z,43.33
2018-09-23T00:55:03.266Z,47.50
2018-09-23T00:57:42.131Z,52.30
2018-09-23T01:00:20.698Z,33.00
2018-09-23T01:03:00.091Z,48.47
2018-09-23T01:05:38.973Z,38.50
2018-09-23T01:08:18.093Z,37.57
2018-09-23T01:10:57.608Z,54.80
2018-09-23T01:13:36.186Z,75.93
2018-09-23T01:16:15.687Z,55.37
2018-09-23T01:18:55.851Z,103.50
2018-09-23T01:21:34.011Z,60.17
2018-09-23T01:24:12.496Z,81.60
2018-09-23T01:26:52.612Z,91.87
2018-09-23T01:29:35.647Z,50.23
2018-09-23T01:32:14.813Z,65.43
2018-09-23T01:34:53.329Z,53.03
2018-09-23T01:37:32.350Z,75.43
2018-09-23T01:40:12.688Z,71.40
2018-09-23T01:42:49.572Z,63.53
2018-09-23T01:45:28.329Z,54.47
2018-09-23T01:48:08.227Z,46.93
2018-09-23T01:50:47.973Z,43.47
2018-09-23T01:53:27.445Z,43.73
2018-09-23T01:56:07.007Z,41.40
2018-09-23T01:58:46.467Z,37.53
2018-09-23T02:01:24.780Z,33.90
2018-09-23T02:04:03.026Z,43.33
2018-09-23T02:06:42.560Z,50.20
2018-09-23T02:09:22.029Z,44.03
2018-09-23T02:12:01.152Z,95.93
2018-09-23T02:14:39.913Z,77.50
2018-09-23T02:17:18.803Z,147.63
2018-09-23T02:19:59.214Z,204.67
2018-09-23T02:22:37.687Z,220.20
2018-09-23T02:25:16.330Z,143.57
2018-09-23T02:27:55.147Z,166.37
2018-09-23T02:30:33.611Z,143.27
2018-09-23T02:33:12.568Z,235.30
2018-09-23T02:35:50.812Z,154.80
2018-09-23T02:38:30.035Z,162.43
2018-09-23T02:41:08.050Z,138.23
2018-09-23T02:43:46.747Z,208.17
2018-09-23T02:46:27.832Z,218.90
2018-09-23T02:49:07.328Z,130.57
2018-09-23T02:51:46.193Z,38.80
2018-09-23T02:54:25.068Z,31.50
2018-09-23T02:57:03.492Z,70.37
2018-09-23T02:59:43.129Z,217.80
2018-09-23T03:02:22.251Z,376.57
2018-09-23T03:05:00.807Z,471.63
2018-09-23T03:07:39.427Z,385.40
2018-09-23T03:10:18.073Z,281.73
2018-09-23T03:12:57.134Z,213.47
2018-09-23T03:15:36.709Z,127.83
2018-09-23T03:18:16.132Z,156.23
2018-09-23T03:20:54.893Z,114.93
2018-09-23T03:23:33.989Z,125.90
2018-09-23T03:26:12.949Z,109.90
2018-09-23T03:28:50.033Z,76.40
2018-09-23T03:31:28.612Z,54.90
2018-09-23T03:34:07.613Z,56.17
2018-09-23T03:36:45.891Z,72.63
2018-09-23T03:39:22.590Z,42.87
2018-09-23T03:42:00.010Z,49.03
2018-09-23T03:44:39.653Z,90.93
2018-09-23T03:47:19.852Z,164.33
2018-09-23T03:49:58.892Z,99.60
2018-09-23T03:52:40.030Z,78.37
2018-09-23T03:55:17.410Z,141.10
2018-09-23T03:57:57.875Z,112.07
2018-09-23T04:00:36.531Z,100.47
2018-09-23T04:03:14.287Z,123.43
2018-09-23T04:05:54.308Z,107.70
2018-09-23T04:08:33.949Z,106.57
2018-09-23T04:11:13.156Z,112.40
2018-09-23T04:13:52.034Z,114.63
2018-09-23T04:16:30.673Z,120.63
2018-09-23T04:19:09.989Z,127.30
2018-09-23T04:21:49.810Z,136.17
2018-09-23T04:24:29.348Z,121.77
2018-09-23T04:27:08.631Z,94.07
2018-09-23T04:29:47.494Z,104.40
2018-09-23T04:32:26.628Z,104.10
2018-09-23T04:35:05.665Z,112.53
2018-09-23T04:37:47.806Z,83.20
2018-09-23T04:40:27.072Z,114.77
2018-09-23T04:43:05.993Z,116.40
2018-09-23T04:45:49.886Z,100.20
2018-09-23T04:48:31.448Z,126.43
2018-09-23T04:51:11.749Z,109.87
2018-09-23T04:53:52.991Z,171.90
2018-09-23T04:56:31.467Z,214.80
2018-09-23T04:59:13.751Z,149.20
2018-09-23T05:01:54.351Z,232.77
2018-09-23T05:04:35.290Z,289.83
2018-09-23T05:07:15.407Z,310.83
2018-09-23T05:09:55.877Z,114.93
2018-09-23T05:12:46.552Z,192.43
2018-09-23T05:15:29.286Z,227.17
2018-09-23T05:18:12.967Z,136.57
2018-09-23T05:20:51.805Z,71.37
2018-09-23T05:23:36.351Z,67.07
2018-09-23T05:26:20.249Z,77.93
2018-09-23T05:29:04.017Z,83.97
2018-09-23T05:31:42.769Z,106.10
2018-09-23T05:34:22.547Z,115.97
2018-09-23T05:37:01.832Z,113.73
2018-09-23T05:39:43.670Z,97.47
2018-09-23T05:42:26.215Z,115.27
2018-09-23T05:45:09.127Z,106.03
2018-09-23T05:47:52.974Z,76.17
2018-09-23T05:50:33.573Z,123.50
2018-09-23T05:53:12.408Z,111.47
2018-09-23T05:55:52.353Z,192.67
2018-09-23T05:58:32.428Z,147.87
2018-09-23T06:01:12.029Z,213.80
2018-09-23T06:03:51.172Z,179.90
2018-09-23T06:06:31.928Z,181.23
2018-09-23T06:09:11.470Z,183.93
2018-09-23T06:11:52.309Z,221.03
2018-09-23T06:14:32.055Z,187.73
2018-09-23T06:17:12.993Z,123.00
2018-09-23T06:19:57.072Z,181.37
2018-09-23T06:22:37.827Z,182.70
2018-09-23T06:25:18.233Z,182.83
2018-09-23T06:27:56.194Z,181.40
2018-09-23T06:30:33.390Z,155.20
2018-09-23T06:33:12.932Z,155.03
2018-09-23T06:35:53.607Z,177.03
2018-09-23T06:38:35.992Z,137.77
2018-09-23T06:41:14.825Z,153.90
2018-09-23T06:43:53.967Z,157.43
2018-09-23T06:46:36.972Z,120.50
2018-09-23T06:49:21.428Z,113.03
2018-09-23T06:52:03.113Z,93.40
2018-09-23T06:54:39.728Z,112.07
2018-09-23T06:57:22.889Z,195.87
2018-09-23T07:00:06.806Z,178.40
2018-09-23T07:02:48.608Z,90.07
2018-09-23T07:05:29.831Z,63.63
2018-09-23T07:08:09.027Z,65.77
2018-09-23T07:10:50.769Z,63.57
2018-09-23T07:13:31.513Z,64.73
2018-09-23T07:16:12.506Z,81.37
2018-09-23T07:18:53.868Z,88.70
2018-09-23T07:21:35.786Z,91.17
2018-09-23T07:24:15.505Z,160.83
2018-09-23T07:26:55.949Z,64.37
2018-09-23T07:29:37.011Z,71.37
2018-09-23T07:32:16.532Z,70.87
2018-09-23T07:34:56.835Z,69.90
2018-09-23T07:37:35.891Z,69.87
2018-09-23T07:40:16.750Z,63.30
2018-09-23T07:43:00.977Z,71.27
2018-09-23T07:45:38.746Z,165.80
2018-09-23T07:48:20.269Z,70.13
2018-09-23T07:51:02.173Z,75.77
2018-09-23T07:53:42.891Z,63.73
2018-09-23T07:56:23.556Z,130.50
2018-09-23T07:59:05.276Z,91.30
2018-09-23T08:01:45.429Z,137.87
2018-09-23T08:04:26.576Z,65.73
2018-09-23T08:07:06.011Z,76.93
2018-09-23T08:09:45.071Z,228.77
2018-09-23T08:12:26.166Z,167.50
2018-09-23T08:15:05.744Z,105.50
2018-09-23T08:17:47.291Z,82.27
2018-09-23T08:20:28.002Z,214.87
2018-09-23T08:23:09.749Z,71.67
2018-09-23T08:25:51.291Z,81.07
2018-09-23T08:28:31.568Z,231.33
2018-09-23T08:31:12.851Z,150.60
2018-09-23T08:33:56.597Z,648.27
2018-09-23T08:36:38.411Z,373.60
2018-09-23T08:39:19.112Z,473.97
2018-09-23T08:42:00.232Z,694.50
2018-09-23T08:44:45.088Z,439.50
2018-09-23T08:47:25.749Z,416.83
2018-09-23T08:50:06.212Z,297.90
2018-09-23T08:52:49.432Z,221.73
2018-09-23T08:55:28.370Z,130.67
2018-09-23T08:58:11.029Z,67.03
2018-09-23T09:00:53.546Z,609.13
2018-09-23T09:03:32.446Z,947.77
2018-09-23T09:06:14.030Z,942.37
2018-09-23T09:08:55.029Z,928.57
2018-09-23T09:11:33.434Z,789.20
2018-09-23T09:14:15.257Z,885.17
2018-09-23T09:16:54.012Z,863.27
2018-09-23T09:19:38.461Z,699.23
2018-09-23T09:22:17.047Z,594.23
2018-09-23T09:24:58.927Z,535.93
2018-09-23T09:27:39.654Z,559.93
2018-09-23T09:30:22.853Z,831.97
2018-09-23T09:33:05.045Z,780.40
2018-09-23T09:35:43.452Z,438.20
2018-09-23T09:38:26.080Z,709.10
2018-09-23T09:41:06.574Z,85.70
2018-09-23T09:43:47.726Z,243.50
2018-09-23T09:46:26.949Z,242.50
2018-09-23T09:49:08.546Z,765.17
2018-09-23T09:51:46.389Z,458.80
2018-09-23T09:54:26.429Z,117.73
2018-09-23T09:57:08.406Z,123.20
2018-09-23T09:59:49.889Z,57.67
2018-09-23T10:02:32.847Z,129.37
2018-09-23T10:05:16.390Z,144.77
2018-09-23T10:07:57.377Z,97.97
2018-09-23T10:10:39.747Z,94.13
2018-09-23T10:13:21.215Z,163.70
2018-09-23T10:16:02.787Z,71.20
2018-09-23T10:18:47.090Z,79.73
2018-09-23T10:21:28.969Z,101.47
2018-09-23T10:24:14.634Z,82.23
2018-09-23T10:27:00.233Z,76.83
2018-09-23T10:29:41.286Z,84.60
2018-09-23T10:32:22.611Z,92.47
2018-09-23T10:35:02.969Z,93.93
2018-09-23T10:37:44.287Z,236.50
2018-09-23T10:40:24.513Z,149.03
2018-09-23T10:43:21.110Z,330.17
2018-09-23T10:46:02.273Z,116.53
2018-09-23T10:48:41.840Z,87.07
2018-09-23T10:51:23.368Z,148.17
2018-09-23T10:54:03.066Z,339.13
2018-09-23T10:56:43.891Z,790.70
2018-09-23T10:59:24.072Z,331.40
2018-09-23T11:04:44.450Z,498.57
2018-09-23T11:07:27.599Z,516.20
2018-09-23T11:10:06.253Z,325.60
2018-09-23T11:12:48.325Z,539.03
2018-09-23T11:15:28.854Z,735.20
2018-09-23T11:18:07.626Z,772.57
2018-09-23T11:20:50.769Z,688.37
2018-09-23T11:23:32.143Z,317.27
2018-09-23T11:26:12.987Z,166.17
2018-09-23T11:28:53.726Z,339.93
2018-09-23T11:31:35.153Z,86.07
2018-09-23T11:34:16.284Z,124.23
2018-09-23T11:36:58.388Z,121.80
2018-09-23T11:39:41.695Z,268.50
2018-09-23T11:42:24.308Z,220.80
2018-09-23T11:45:04.346Z,308.90
2018-09-23T11:47:43.347Z,161.87
2018-09-23T11:50:28.290Z,229.53
2018-09-23T11:53:07.576Z,285.03
2018-09-23T11:55:48.832Z,390.27
2018-09-23T11:58:31.532Z,148.77
2018-09-23T12:01:11.588Z,124.23
2018-09-23T12:03:53.951Z,167.87
2018-09-23T12:06:34.149Z,97.80
2018-09-23T12:09:18.069Z,180.07
2018-09-23T12:11:56.671Z,478.70
2018-09-23T12:14:37.783Z,458.20
2018-09-23T12:17:17.407Z,586.80
2018-09-23T12:19:57.469Z,450.33
2018-09-23T12:22:38.711Z,369.80
2018-09-23T12:25:21.959Z,285.13
2018-09-23T12:28:00.527Z,268.87
2018-09-23T12:30:41.190Z,106.33
2018-09-23T12:33:24.927Z,69.10
2018-09-23T12:36:09.028Z,86.13
2018-09-23T12:38:50.046Z,85.27
2018-09-23T12:41:34.043Z,74.43
2018-09-23T12:44:21.511Z,61.60
2018-09-23T12:47:12.214Z,534.67
2018-09-23T12:50:00.432Z,146.17
2018-09-23T12:52:41.034Z,93.97
2018-09-23T12:55:21.136Z,26.83
2018-09-23T12:58:03.605Z,39.63
2018-09-23T13:00:44.185Z,62.73
2018-09-23T14:18:15.322Z,84.27
2018-09-23T14:20:56.867Z,74.93
2018-09-23T14:23:37.825Z,96.33
2018-09-23T14:26:18.446Z,93.90
2018-09-23T14:28:59.687Z,83.60
2018-09-23T14:31:40.382Z,94.47
2018-09-23T14:34:20.264Z,94.22
2018-09-23T14:36:59.222Z,102.17
2018-09-23T14:39:43.040Z,105.90
2018-09-23T14:42:24.375Z,114.13
2018-09-23T14:45:09.868Z,106.37
2018-09-23T14:47:48.747Z,116.83
2018-09-23T14:50:33.650Z,113.10
2018-09-23T14:53:13.939Z,113.30
2018-09-23T14:55:57.202Z,113.77
2018-09-23T14:58:35.009Z,120.97
2018-09-23T15:01:13.518Z,95.07
2018-09-23T15:03:53.005Z,92.40
2018-09-23T15:06:34.747Z,150.23
2018-09-23T15:09:14.566Z,105.57
2018-09-23T15:11:56.419Z,99.30
2018-09-23T15:14:37.725Z,102.75
2018-09-23T15:17:17.180Z,105.37
2018-09-23T15:19:56.040Z,104.17
2018-09-23T15:22:37.163Z,116.07
2018-09-23T15:25:18.464Z,104.57
2018-09-23T15:27:55.269Z,101.77
2018-09-23T15:30:36.883Z,94.77
2018-09-23T15:33:18.906Z,89.33
2018-09-23T15:35:59.628Z,73.17
2018-09-23T15:38:37.370Z,80.43
2018-09-23T15:41:19.559Z,80.87
2018-09-23T15:44:00.826Z,65.47
2018-09-23T15:46:41.901Z,84.57
2018-09-23T15:49:20.780Z,70.33
2018-09-23T15:52:04.083Z,73.93
2018-09-23T15:54:45.442Z,59.23
2018-09-23T15:57:26.783Z,78.83
2018-09-23T16:00:07.426Z,181.83
2018-09-23T16:02:49.106Z,75.37
2018-09-23T16:05:31.640Z,84.97
2018-09-23T16:08:14.751Z,46.90
2018-09-23T16:10:57.741Z,51.27
2018-09-23T16:13:39.289Z,62.00
2018-09-23T16:16:24.722Z,27.37
2018-09-23T16:19:05.035Z,21.83
2018-09-23T16:21:45.779Z,25.77
2018-09-23T16:24:24.002Z,20.73
2018-09-23T16:27:04.202Z,35.27
2018-09-23T16:29:42.902Z,30.23
2018-09-23T16:32:22.103Z,20.60
2018-09-23T16:35:01.065Z,21.30
2018-09-23T16:37:43.523Z,37.90
2018-09-23T16:40:22.491Z,24.30
2018-09-23T16:43:02.985Z,158.57
2018-09-23T16:45:42.952Z,151.80
2018-09-23T16:48:24.501Z,67.87
2018-09-23T16:51:07.044Z,139.17
2018-09-23T16:53:50.041Z,121.77
2018-09-23T16:56:31.365Z,223.87
2018-09-23T16:59:12.306Z,136.60
2018-09-23T17:01:52.840Z,310.43
2018-09-23T17:04:40.264Z,90.43
2018-09-23T17:07:18.510Z,291.77
2018-09-23T17:10:00.831Z,238.57
2018-09-23T17:12:40.383Z,136.93
2018-09-23T17:15:22.862Z,254.83
2018-09-23T17:18:02.855Z,202.67
2018-09-23T17:20:49.125Z,608.67
2018-09-23T17:23:31.986Z,638.60
2018-09-23T17:26:12.887Z,720.87
2018-09-23T17:28:52.624Z,230.53
2018-09-23T17:31:33.967Z,548.80
2018-09-23T17:34:17.148Z,295.70
2018-09-23T17:36:57.982Z,218.63
2018-09-23T17:39:40.486Z,256.67
2018-09-23T17:42:19.247Z,189.60
2018-09-23T17:44:59.227Z,253.43
2018-09-23T17:47:40.203Z,427.37
2018-09-23T17:50:19.757Z,320.63
2018-09-23T17:52:57.464Z,232.33
2018-09-23T17:55:44.065Z,323.63
2018-09-23T17:58:22.821Z,346.97
2018-09-23T18:01:00.646Z,253.07
2018-09-23T18:03:39.647Z,330.67
2018-09-23T18:06:16.525Z,193.60
2018-09-23T18:08:57.840Z,298.73
2018-09-23T18:11:37.204Z,276.33
2018-09-23T18:14:19.507Z,254.80
2018-09-23T18:17:01.920Z,185.37
2018-09-23T18:19:45.023Z,127.33
2018-09-23T18:22:23.425Z,112.70
2018-09-23T18:25:01.384Z,236.77
2018-09-23T18:27:39.582Z,220.23
2018-09-23T18:30:22.386Z,207.23
2018-09-23T18:33:02.627Z,242.03
2018-09-23T18:35:40.641Z,182.77
2018-09-23T18:38:21.463Z,148.37
2018-09-23T18:41:00.960Z,178.17
2018-09-23T18:43:41.064Z,271.53
2018-09-23T18:46:25.688Z,252.13
2018-09-23T18:49:07.442Z,274.60
2018-09-23T18:51:47.603Z,219.80
2018-09-23T19:36:08.517Z,90.77
2018-09-23T19:38:53.423Z,55.90
2018-09-23T19:41:34.504Z,55.93
2018-09-23T19:44:18.314Z,85.97
2018-09-23T19:47:00.480Z,110.73
2018-09-23T19:49:42.059Z,166.23
2018-09-23T19:52:23.276Z,35.57
2018-09-23T19:55:03.599Z,603.13
2018-09-23T19:57:49.219Z,496.63
2018-09-23T20:00:32.233Z,562.83
2018-09-23T20:03:21.180Z,573.50
2018-09-23T20:06:09.477Z,623.07
2018-09-23T20:08:50.920Z,94.87
2018-09-23T20:11:37.597Z,91.93
2018-09-23T20:14:30.518Z,335.93
2018-09-23T20:17:21.780Z,618.73
2018-09-23T20:20:09.200Z,397.67
2018-09-23T20:22:51.702Z,156.53
2018-09-23T20:25:37.805Z,71.33
2018-09-23T20:28:29.101Z,171.23
2018-09-23T20:31:11.402Z,262.37
2018-09-23T20:34:02.336Z,266.80
2018-09-23T20:36:43.155Z,218.50
2018-09-23T20:39:27.298Z,108.13
2018-09-23T20:42:08.338Z,117.80
2018-09-23T20:44:56.868Z,148.77
2018-09-23T20:47:40.260Z,43.67
2018-09-23T20:50:21.402Z,106.17
2018-09-23T20:53:00.883Z,118.03
2018-09-23T20:55:43.458Z,184.57
2018-09-23T20:58:23.929Z,149.20
2018-09-23T21:01:09.420Z,480.00
2018-09-23T21:03:50.147Z,137.40
2018-09-23T21:06:31.377Z,84.10
2018-09-23T21:09:15.143Z,101.27
2018-09-23T21:11:56.080Z,103.90
2018-09-23T21:14:38.056Z,59.57
2018-09-23T21:17:22.196Z,233.97
2018-09-23T21:20:03.676Z,407.70
2018-09-23T21:22:45.602Z,401.40
2018-09-23T21:25:26.025Z,166.43
2018-09-23T21:28:12.123Z,87.37
2018-09-23T21:30:52.902Z,74.13
2018-09-23T21:33:34.220Z,111.87
2018-09-23T21:36:14.104Z,146.97
2018-09-23T21:38:56.576Z,124.43
2018-09-23T21:41:36.760Z,71.67
2018-09-23T21:44:15.767Z,197.70
2018-09-23T21:47:00.362Z,133.67
2018-09-23T21:49:45.965Z,67.70
2018-09-23T21:52:24.660Z,67.93
2018-09-23T21:55:05.776Z,110.97
2018-09-23T21:57:45.058Z,356.80
2018-09-23T22:00:26.800Z,463.73
2018-09-23T22:03:11.241Z,442.50
2018-09-23T22:05:52.958Z,399.87
2018-09-23T22:08:35.024Z,445.63
2018-09-23T22:11:15.538Z,258.53
2018-09-23T22:13:55.374Z,102.90
2018-09-23T22:16:34.385Z,149.93
2018-09-23T22:19:14.102Z,40.10
2018-09-23T22:21:55.085Z,55.20
2018-09-23T22:24:35.579Z,59.40
2018-09-23T22:27:14.260Z,74.13
2018-09-23T22:29:58.852Z,81.30
2018-09-23T22:32:39.257Z,109.43
2018-09-23T22:35:23.677Z,129.47
2018-09-23T22:38:09.179Z,183.67
2018-09-23T22:40:48.417Z,277.73
2018-09-23T22:43:27.057Z,311.33
2018-09-23T22:46:08.844Z,227.00
2018-09-23T22:48:48.297Z,361.10
2018-09-23T22:51:28.102Z,279.83
2018-09-23T22:54:07.639Z,189.27
2018-09-23T22:56:47.720Z,145.20
2018-09-23T22:59:32.697Z,122.37
2018-09-23T23:02:11.521Z,74.93
2018-09-23T23:04:50.518Z,52.10
2018-09-23T23:07:31.060Z,134.77
2018-09-23T23:10:13.839Z,48.87
2018-09-23T23:12:53.721Z,28.90
2018-09-23T23:15:32.638Z,242.37
2018-09-23T23:18:13.221Z,215.80
2018-09-23T23:20:54.263Z,151.87
2018-09-23T23:23:33.121Z,168.43
2018-09-23T23:26:14.060Z,351.73
2018-09-23T23:28:53.098Z,28.07
2018-09-23T23:31:37.842Z,219.20
2018-09-23T23:34:17.920Z,258.83
2018-09-23T23:36:57.717Z,127.13
2018-09-23T23:39:36.365Z,60.57
2018-09-23T23:42:21.221Z,32.00
2018-09-23T23:45:04.301Z,73.70
2018-09-23T23:47:48.358Z,438.00
2018-09-23T23:50:28.020Z,33.47
2018-09-23T23:53:06.896Z,52.40
2018-09-23T23:55:47.443Z,36.63
2018-09-23T23:58:25.780Z,81.83
